White Mountain Summit Weather observations

Data are for 10 minute period ending at time listed.
 Day   Time   Solar   Ave.   Ave.  Ave.  Vector    Max.    Baro.  
  of    of     Rad.   Air    Rel.  Wind   Wind     Wind   Press.  
Year   Day            Temp.  Hum.  Speed  Dir.     Gust           
2014   (PST)   W/m2    F      %     mph   deg.      mph     mb.   
-------------------------------------------------------------------
 353   22:10  3626.0    12   88.4    23    260.0    25.9   999.0 
 353   22:20  3759.0    12   88.4    22    263.3    25.9   999.0 
 353   22:30  3722.0    12   88.4    22    263.4    28.2   999.0 
 353   22:40  3738.0    12   88.5    23    264.6    28.2   999.0 
 353   22:50  3601.0    12   88.5    24    263.0    30.6   999.0 
 353   23:00  3744.0    12   88.5    24    262.9    28.2   999.0 
 353   23:10  3725.0    12   88.5    27    274.7    33.0   999.0 
 353   23:20  3923.0    13   88.6    27    270.8    33.0   999.0 
 353   23:30  3842.0    13   88.6    26    272.3    33.0   999.0 
 353   23:40  3734.0    13   88.6    25    277.7    30.6   999.0 
 353   23:50  4069.0    13   88.7    24    278.3    30.6   999.0 
 354    0:00  3903.0    14   88.8    22    278.3    25.9   999.0 
 354    0:10  3883.0    14   88.8    17    278.3    23.5   999.0 
 354    0:20  4041.0    13   88.7    19    278.3    23.5   999.0 
 354    0:30  4059.0    13   88.7    20    278.3    23.5   999.0 
 354    0:40  3791.0    13   88.7    19    278.3    23.5   999.0 
 354    0:50  3998.0    13   88.8    18    278.3    23.5   999.0 
 354    1:00  4024.0    13   88.7    19    278.3    21.2   999.0 
 354    1:10  4050.0    13   88.8    18    278.3    21.2   999.0 
 354    1:20  4139.0    13   88.7    15    278.3    18.8   999.0 
 354    1:30  4065.0    13   88.7    14    278.3    18.8   999.0 
 354    1:40  4094.0    13   88.8    16    278.3    21.2   999.0 
 354    1:50  4165.0    14   88.8    16    278.3    21.2   999.0 
 354    2:00  4240.0    14   88.8     3    278.3    16.5   999.0 
 354    2:10  4161.0    14   88.9     0      0.0     0.0   999.0 
 354    2:20  4107.0    14   88.9     0      0.0     0.0   999.0 
 354    2:30  3895.0    14   88.8     0      0.0     0.0   999.0 
 354    2:40  4148.0    13   88.8     0      0.0     0.0   999.0 
 354    2:50  4106.0    14   88.9     0      0.0     0.0   999.0 
 354    3:00  4449.0    14   88.9     0      0.0     0.0   999.0 
 354    3:10  3988.0    14   88.9     0      0.0     0.0   999.0 
 354    3:20  4261.0    14   88.8     0      0.0     0.0   999.0 
 354    3:30  4138.0    14   89.0     0      0.0     0.0   999.0 
 354    3:40  4197.0    14   89.0     0      0.0     0.0   999.0 
 354    3:50  4282.0    14   89.0     0      0.0     0.0   999.0 
 354    4:00  4188.0    14   89.0     0      0.0     0.0   999.0 
 354    4:10  4247.0    14   89.1     0      0.0     0.0   999.0 
 354    4:20  4416.0    15   89.2     0      0.0     0.0   999.0 
 354    4:30  4412.0    15   89.2     0      0.0     0.0   999.0 
 354    4:40  4408.0    15   89.2     0      0.0     0.0   999.0 
 354    4:50  4466.0    15   89.2     0      0.0     0.0   999.0 
 354    5:00  4337.0    15   89.2     0      0.0     0.0   999.0 
 354    5:10  4337.0    15   89.2     0      0.0     0.0   999.0 
 354    5:20  4297.0    15   89.2     0      0.0     0.0   999.0 
 354    5:30  4202.0    15   89.2     0      0.0     0.0   999.0 
 354    5:40  4112.0    15   89.2     0      0.0     0.0   999.0 
 354    5:50  4507.0    15   89.2     0      0.0     0.0   999.0 
 354    6:00  4434.0    14   89.2     0      0.0     0.0   999.0 
 354    6:10  4497.0    15   89.2     0      0.0     0.0   999.0 
 354    6:20  4400.0    15   89.2     0      0.0     0.0   999.0 
 354    6:30  4291.0    14   89.2     0      0.0     0.0   999.0 
 354    6:40  4441.0    14   89.2     0      0.0     0.0   999.0 
 354    6:50  4529.0    15   89.2     0      0.0     0.0   999.0 
 354    7:00  4587.0    15   89.2     0      0.0     0.0   999.0 
 354    7:10  4666.0    15   89.2     0      0.0     0.0   999.0 
 354    7:20  4631.0    15   89.3     0      0.0     0.0   999.0 
 354    7:30  4423.0    15   89.3     0      0.0     0.0   999.0 
 354    7:40  4667.0    15   89.2     0      0.0     0.0   999.0 
 354    7:50  4491.0    15   89.2     0      0.0     0.0   999.0 
 354    8:00  4215.0    15   89.2     0      0.0     0.0   999.0 
 354    8:10  4354.0    15   89.2     0      0.0     0.0   999.0 
 354    8:20  4486.0    15   89.2     0      0.0     0.0   999.0 
 354    8:30  3980.0    15   89.2     0      0.0     0.0   999.0 
 354    8:40  4469.0    15   89.2     0      0.0     0.0   999.0 
 354    8:50  4127.0    15   89.2     0      0.0     0.0   999.0 
 354    9:00  4463.0    15   89.2     0      0.0     0.0   999.0 
 354    9:10  4284.0    15   89.2     0      0.0     0.0   999.0 
 354    9:20  4499.0    15   89.2     0      0.0     0.0   999.0 
 354    9:30  4637.0    15   89.1     0      0.0     0.0   999.0 
 354    9:40  4566.0    15   89.1     0      0.0     0.0   999.0 
 354    9:50  4915.0    15   89.2     0      0.0     0.0   999.0 
 354   10:00  4712.0    16   89.3     0      0.0     0.0   999.0 
 354   10:10  4765.0    16   89.3     0      0.0     0.0   999.0 
 354   10:20  4765.0    16   89.3     0      0.0     0.0   999.0 
 354   10:30  4617.0    16   89.4     0      0.0     0.0   999.0 
 354   10:40  4899.0    16   89.5     0      0.0     0.0   999.0 
 354   10:50  5135.0    16   89.3     0      0.0     0.0   999.0 
 354   11:00  4962.0    16   89.3     0      0.0     0.0   999.0 
 354   11:10  5170.0    16   89.3     0      0.0     0.0   999.0 
 354   11:20  5501.0    16   89.3     0      0.0     0.0   999.0 
 354   11:30  5536.0    16   89.4     0      0.0     0.0   999.0 
 354   11:40  5542.0    16   89.5     0      0.0     0.0   999.0 
 354   11:50  5673.0    17   89.4     0      0.0     0.0   999.0 
 354   12:00  5717.0    17   89.5     0      0.0     0.0   999.0 
 354   12:10  5731.0    17   89.7     0      0.0     0.0   999.0 
 354   12:20  5693.0    18   89.7     0      0.0     0.0   999.0 
 354   12:30  5767.0    18   89.8     0      0.0     0.0   999.0 
 354   12:40  5736.0    18   89.7     0      0.0     0.0   999.0 
 354   12:50  5781.0    19   89.6     0      0.0     0.0   999.0 
 354   13:00  5665.0    20   89.7     0      0.0     0.0   999.0 
 354   13:10  5784.0    21   89.6     0      0.0     0.0   999.0 
 354   13:20  5606.0    21   90.0     0      0.0     0.0   999.0 
 354   13:30  5543.0    20   90.1     0      0.0     0.0   999.0 
 354   13:40  5555.0    20   90.2     0      0.0     0.0   999.0 
 354   13:50  5600.0    19   90.1     0      0.0     0.0   999.0 
 354   14:00  5493.0    19   90.1     0      0.0     0.0   999.0 
 354   14:10  5646.0    19   90.3     0      0.0     0.0   999.0 
 354   14:20  5786.0    19   90.3     0      0.0     0.0   999.0 
 354   14:30  5741.0    18   90.2     0      0.0     0.0   999.0 
 354   14:40  5962.0    18   90.2     0      0.0     0.0   999.0 
 354   14:50  5904.0    18   90.2     0      0.0     0.0   999.0 
 354   15:00  5887.0    18   90.3     0      0.0     0.0   999.0 
 354   15:10  5753.0    18   90.3     0      0.0     0.0   999.0 
 354   15:20  5951.0    18   90.3     0      0.0     0.0   999.0 
 354   15:30  6031.0    19   90.5     0      0.0     0.0   999.0 
 354   15:40  5791.0    19   90.6     0      0.0     0.0   999.0 
 354   15:50  6147.0    19   90.6     0      0.0     0.0   999.0 
 354   16:00  5973.0    20   90.7     0      0.0     0.0   999.0 
 354   16:10  6079.0    19   90.7     0      0.0     0.0   999.0 
 354   16:20  6024.0    20   90.7     0      0.0     0.0   999.0 
 354   16:30  6060.0    20   90.7     0      0.0     0.0   999.0 
 354   16:40  5541.0    20   90.8     0      0.0     0.0   999.0 
 354   16:50  6213.0    20   90.9     0      0.0     0.0   999.0 
 354   17:00  6080.0    20   90.9     0      0.0     0.0   999.0 
 354   17:10  5805.0    20   90.9     0      0.0     0.0   999.0 
 354   17:20  6362.0    20   90.9     0      0.0     0.0   999.0 
 354   17:30  6207.0    20   91.0     0      0.0     0.0   999.0 
 354   17:40  6308.0    20   91.0     0      0.0     0.0   999.0 
 354   17:50  6432.0    20   91.1     0      0.0     0.0   999.0 
 354   18:00  6329.0    20   91.0     0      0.0     0.0   999.0 
 354   18:10  6497.0    20   91.0     0      0.0     0.0   999.0 
 354   18:20  6488.0    20   91.0     0      0.0     0.0   999.0 
 354   18:30  6444.0    20   91.0     0      0.0     0.0   999.0 
 354   18:40  6449.0    20   91.0     0      0.0     0.0   999.0 
 354   18:50  6253.0    20   91.0     0      0.0     0.0   999.0 
 354   19:00  6428.0    20   91.1     0      0.0     0.0   999.0 
 354   19:10  6429.0    21   91.1     0      0.0     0.0   999.0 
 354   19:20  6398.0    21   91.2     0      0.0     0.0   999.0 
 354   19:30  6413.0    21   91.2     0      0.0     0.0   999.0 
 354   19:40  6480.0    21   91.2     0      0.0     0.0   999.0 
 354   19:50  6400.0    21   91.2     0      0.0     0.0   999.0 
 354   20:00  6432.0    21   91.2     0      0.0     0.0   999.0 
 354   20:10  6454.0    21   91.3     0      0.0     0.0   999.0 
 354   20:20  6314.0    21   91.3     0      0.0     0.0   999.0 
 354   20:30  6498.0    21   91.3     0      0.0     0.0   999.0 
 354   20:40  6444.0    21   91.3     0      0.0     0.0   999.0 
 354   20:50  6433.0    21   91.3     0      0.0     0.0   999.0 
 354   21:00  6414.0    21   91.3     0      0.0     0.0   999.0 
 354   21:10  6459.0    21   91.3     0      0.0     0.0   999.0 
 354   21:20  6406.0    21   91.3     0      0.0     0.0   999.0 
 354   21:30  6464.0    21   91.3     0      0.0     0.0   999.0 
 354   21:40  6392.0    21   91.3     0      0.0     0.0   999.0 
 354   21:50  6451.0    21   91.3     0      0.0     0.0   999.0 
 354   22:00  6379.0    21   91.3     0      0.0     0.0   999.0 

Return to White Mountain graphs page.


Western Regional Climate Center,wrcc@dri.edu